createdAt,value
2018-07-03T00:01:48.627Z,78.80
2018-07-03T00:04:16.785Z,79.90
2018-07-03T00:06:44.926Z,80.90
2018-07-03T00:09:13.227Z,81.50
2018-07-03T00:11:41.362Z,82.10
2018-07-03T00:14:09.486Z,82.70
2018-07-03T00:16:43.006Z,83.50
2018-07-03T00:19:11.171Z,84.10
2018-07-03T00:21:39.325Z,84.40
2018-07-03T00:24:07.465Z,84.90
2018-07-03T00:26:35.608Z,85.60
2018-07-03T00:29:03.773Z,86.30
2018-07-03T00:31:31.895Z,86.40
2018-07-03T00:34:00.071Z,86.30
2018-07-03T00:36:28.202Z,85.90
2018-07-03T00:38:56.371Z,86.20
2018-07-03T00:41:24.529Z,86.90
2018-07-03T00:43:52.915Z,87.10
2018-07-03T00:46:21.093Z,87.10
2018-07-03T00:48:49.254Z,87.00
2018-07-03T00:51:17.379Z,87.20
2018-07-03T00:53:45.627Z,87.50
2018-07-03T00:56:13.825Z,87.40
2018-07-03T00:58:41.956Z,87.40
2018-07-03T01:01:10.165Z,87.80
2018-07-03T01:03:38.303Z,88.00
2018-07-03T01:06:06.474Z,87.10
2018-07-03T01:08:34.607Z,85.90
2018-07-03T01:11:02.759Z,86.70
2018-07-03T01:13:30.890Z,85.20
2018-07-03T01:15:59.033Z,87.10
2018-07-03T01:18:27.163Z,88.80
2018-07-03T01:20:55.301Z,89.90
2018-07-03T01:23:23.462Z,90.20
2018-07-03T01:25:51.584Z,90.20
2018-07-03T01:28:19.742Z,90.10
2018-07-03T01:30:48.237Z,90.00
2018-07-03T01:33:16.384Z,90.00
2018-07-03T01:35:44.501Z,90.10
2018-07-03T01:38:12.666Z,90.20
2018-07-03T01:40:40.817Z,90.30
2018-07-03T01:43:08.957Z,90.80
2018-07-03T01:45:37.092Z,90.40
2018-07-03T01:48:05.392Z,90.70
2018-07-03T01:50:33.588Z,90.70
2018-07-03T01:53:01.709Z,90.70
2018-07-03T01:55:29.846Z,90.60
2018-07-03T01:57:58.042Z,90.50
2018-07-03T02:00:26.275Z,90.60
2018-07-03T02:02:54.416Z,90.50
2018-07-03T02:05:22.692Z,90.60
2018-07-03T02:07:52.186Z,90.80
2018-07-03T02:10:20.333Z,91.20
2018-07-03T02:12:48.445Z,91.50
2018-07-03T02:15:16.599Z,91.60
2018-07-03T02:17:44.733Z,92.00
2018-07-03T02:20:13.062Z,92.30
2018-07-03T02:22:41.315Z,92.50
2018-07-03T02:25:09.462Z,92.60
2018-07-03T02:27:37.594Z,92.50
2018-07-03T02:32:33.747Z,92.90
2018-07-03T02:35:01.898Z,93.00
2018-07-03T02:37:30.085Z,93.10
2018-07-03T02:39:58.234Z,93.40
2018-07-03T02:42:26.348Z,93.50
2018-07-03T02:44:54.507Z,93.30
2018-07-03T02:47:22.690Z,93.00
2018-07-03T02:49:50.894Z,92.90
2018-07-03T02:52:19.081Z,92.90
2018-07-03T02:54:47.279Z,92.80
2018-07-03T02:57:15.402Z,92.90
2018-07-03T02:59:44.581Z,93.00
2018-07-03T03:02:12.743Z,93.20
2018-07-03T03:04:40.879Z,93.30
2018-07-03T03:07:09.003Z,93.50
2018-07-03T03:09:37.163Z,93.20
2018-07-03T03:12:05.390Z,93.30
2018-07-03T03:14:33.550Z,93.40
2018-07-03T03:17:01.717Z,93.50
2018-07-03T03:19:29.871Z,93.50
2018-07-03T03:21:58.027Z,93.60
2018-07-03T03:24:26.167Z,93.60
2018-07-03T03:26:54.280Z,93.30
2018-07-03T03:29:22.390Z,93.00
2018-07-03T03:31:50.573Z,92.60
2018-07-03T03:34:18.695Z,92.60
2018-07-03T03:36:46.837Z,92.60
2018-07-03T03:39:14.989Z,92.50
2018-07-03T03:41:43.101Z,92.30
2018-07-03T03:44:11.248Z,92.40
2018-07-03T03:46:39.397Z,92.50
2018-07-03T03:49:07.558Z,92.60
2018-07-03T03:51:35.718Z,92.60
2018-07-03T03:54:03.835Z,92.60
2018-07-03T03:56:31.990Z,93.00
2018-07-03T03:59:01.174Z,93.00
2018-07-03T04:01:29.346Z,92.90
2018-07-03T04:03:57.485Z,92.80
2018-07-03T04:06:25.638Z,92.80
2018-07-03T04:08:53.802Z,92.70
2018-07-03T04:11:21.955Z,92.70
2018-07-03T04:13:50.113Z,92.60
2018-07-03T04:16:18.278Z,92.50
2018-07-03T04:18:46.466Z,92.40
2018-07-03T04:23:42.595Z,92.80
2018-07-03T04:26:10.783Z,92.70
2018-07-03T04:28:38.930Z,92.70
2018-07-03T04:31:07.104Z,92.20
2018-07-03T04:33:35.252Z,91.90
2018-07-03T04:36:03.402Z,91.60
2018-07-03T04:38:31.535Z,91.10
2018-07-03T04:40:59.666Z,91.00
2018-07-03T04:43:27.790Z,90.50
2018-07-03T04:45:55.913Z,90.40
2018-07-03T04:48:24.070Z,90.50
2018-07-03T04:50:52.201Z,90.30
2018-07-03T04:53:20.428Z,89.80
2018-07-03T04:55:48.537Z,88.50
2018-07-03T04:58:16.725Z,87.00
2018-07-03T05:00:45.008Z,86.10
2018-07-03T05:03:13.231Z,85.40
2018-07-03T05:05:41.358Z,85.40
2018-07-03T05:08:09.539Z,84.70
2018-07-03T05:10:37.778Z,83.50
2018-07-03T05:13:25.847Z,82.20
2018-07-03T05:15:54.027Z,81.00
2018-07-03T05:18:22.494Z,79.20
2018-07-03T05:20:50.629Z,77.90
2018-07-03T05:23:18.794Z,75.90
2018-07-03T05:25:47.101Z,74.80
2018-07-03T05:28:15.792Z,74.30
2018-07-03T05:30:43.975Z,73.30
2018-07-03T05:33:12.102Z,73.10
2018-07-03T05:35:40.257Z,73.30
2018-07-03T05:38:08.399Z,72.70
2018-07-03T05:40:36.556Z,72.00
2018-07-03T05:43:18.068Z,71.50
2018-07-03T05:45:46.234Z,71.30
2018-07-03T05:48:18.812Z,70.90
2018-07-03T05:50:47.025Z,70.50
2018-07-03T05:53:15.272Z,70.90
2018-07-03T05:55:43.403Z,70.70
2018-07-03T05:58:11.571Z,70.00
2018-07-03T06:03:07.691Z,69.90
2018-07-03T06:05:35.872Z,69.50
2018-07-03T06:08:04.014Z,69.10
2018-07-03T06:10:32.188Z,68.20
2018-07-03T06:13:00.380Z,66.70
2018-07-03T06:15:28.539Z,65.70
2018-07-03T06:17:56.691Z,64.00
2018-07-03T06:20:25.007Z,62.10
2018-07-03T06:22:53.248Z,61.20
2018-07-03T06:25:21.391Z,59.40
2018-07-03T06:27:49.579Z,59.60
2018-07-03T06:30:17.771Z,58.90
2018-07-03T06:32:45.988Z,58.60
2018-07-03T06:35:14.224Z,58.30
2018-07-03T06:37:42.442Z,57.90
2018-07-03T06:40:10.539Z,58.80
2018-07-03T06:45:07.014Z,58.00
2018-07-03T06:47:35.324Z,57.70
2018-07-03T06:50:03.638Z,58.30
2018-07-03T06:52:31.786Z,58.10
2018-07-03T06:54:59.938Z,57.70
2018-07-03T06:57:44.214Z,57.10
2018-07-03T07:00:12.395Z,55.30
2018-07-03T07:02:40.572Z,53.90
2018-07-03T07:05:08.711Z,52.80
2018-07-03T07:07:48.160Z,51.40
2018-07-03T07:10:16.340Z,49.50
2018-07-03T07:12:44.607Z,48.70
2018-07-03T07:15:12.804Z,47.80
2018-07-03T07:17:40.966Z,46.00
2018-07-03T07:20:09.117Z,45.70
2018-07-03T07:22:37.317Z,44.40
2018-07-03T07:25:05.662Z,43.60
2018-07-03T07:27:34.257Z,43.40
2018-07-03T07:30:02.446Z,42.10
2018-07-03T07:32:30.750Z,42.00
2018-07-03T07:34:58.920Z,41.20
2018-07-03T07:37:27.103Z,40.70
2018-07-03T07:39:55.300Z,41.20
2018-07-03T07:42:23.643Z,40.20
2018-07-03T07:44:51.837Z,38.90
2018-07-03T07:47:20.140Z,38.20
2018-07-03T07:49:48.456Z,38.80
2018-07-03T07:52:16.631Z,37.60
2018-07-03T07:54:44.815Z,36.30
2018-07-03T07:57:13.006Z,35.20
2018-07-03T07:59:41.257Z,34.90
2018-07-03T08:02:09.447Z,34.00
2018-07-03T08:04:37.670Z,33.90
2018-07-03T08:07:05.974Z,33.60
2018-07-03T08:09:34.181Z,32.60
2018-07-03T08:12:02.430Z,33.00
2018-07-03T08:14:30.603Z,32.20
2018-07-03T08:16:58.913Z,32.20
2018-07-03T08:19:27.116Z,31.10
2018-07-03T08:21:55.502Z,30.40
2018-07-03T08:24:23.819Z,30.50
2018-07-03T08:26:51.985Z,30.30
2018-07-03T08:29:20.150Z,30.20
2018-07-03T08:31:48.450Z,30.90
2018-07-03T08:34:17.766Z,30.00
2018-07-03T08:36:45.981Z,30.30
2018-07-03T08:39:14.237Z,29.20
2018-07-03T08:41:42.684Z,29.70
2018-07-03T08:44:10.843Z,30.20
2018-07-03T08:46:38.983Z,29.70
2018-07-03T08:49:08.138Z,29.20
2018-07-03T08:51:36.951Z,29.70
2018-07-03T08:54:05.292Z,28.90
2018-07-03T08:56:33.996Z,29.10
2018-07-03T08:59:02.843Z,29.70
2018-07-03T09:01:31.171Z,29.40
2018-07-03T09:03:59.387Z,29.10
2018-07-03T09:06:27.955Z,29.80
2018-07-03T09:08:56.236Z,30.00
2018-07-03T09:11:24.563Z,30.40
2018-07-03T09:13:52.961Z,30.30
2018-07-03T09:16:21.121Z,29.80
2018-07-03T09:18:49.411Z,29.70
2018-07-03T09:21:17.664Z,30.70
2018-07-03T09:23:45.920Z,30.40
2018-07-03T09:26:14.097Z,30.70
2018-07-03T09:28:42.251Z,30.40
2018-07-03T09:31:10.442Z,31.70
2018-07-03T09:33:38.615Z,32.00
2018-07-03T09:36:06.882Z,31.30
2018-07-03T09:38:35.222Z,31.10
2018-07-03T09:41:03.523Z,31.70
2018-07-03T09:43:31.690Z,32.30
2018-07-03T09:45:59.912Z,32.50
2018-07-03T09:48:28.067Z,33.00
2018-07-03T09:50:56.182Z,33.10
2018-07-03T09:53:24.310Z,32.60
2018-07-03T09:55:52.459Z,32.50
2018-07-03T09:58:20.621Z,32.70
2018-07-03T10:00:54.652Z,32.10
2018-07-03T10:03:23.331Z,31.60
2018-07-03T10:05:51.529Z,30.40
2018-07-03T10:08:19.682Z,31.50
2018-07-03T10:10:47.811Z,30.90
2018-07-03T10:13:15.946Z,30.90
2018-07-03T10:15:44.127Z,32.20
2018-07-03T10:18:12.289Z,32.50
2018-07-03T10:20:40.429Z,33.10
2018-07-03T10:23:08.602Z,32.80
2018-07-03T10:25:36.795Z,33.20
2018-07-03T10:28:04.927Z,34.60
2018-07-03T10:30:33.096Z,34.50
2018-07-03T10:33:01.237Z,34.50
2018-07-03T10:35:29.453Z,34.20
2018-07-03T10:37:57.602Z,34.10
2018-07-03T10:40:25.792Z,34.30
2018-07-03T10:42:53.918Z,33.70
2018-07-03T10:45:22.095Z,35.00
2018-07-03T10:47:50.354Z,34.40
2018-07-03T10:50:18.579Z,34.90
2018-07-03T10:52:46.730Z,34.90
2018-07-03T10:55:14.994Z,35.30
2018-07-03T10:57:43.151Z,35.80
2018-07-03T11:00:11.352Z,35.70
2018-07-03T11:02:39.534Z,35.60
2018-07-03T11:05:07.828Z,34.90
2018-07-03T11:10:04.152Z,36.20
2018-07-03T11:12:32.275Z,34.80
2018-07-03T11:15:00.579Z,34.80
2018-07-03T11:17:28.743Z,34.30
2018-07-03T11:19:57.090Z,34.20
2018-07-03T11:22:25.109Z,33.70
2018-07-03T11:24:53.255Z,33.90
2018-07-03T11:27:21.444Z,33.30
2018-07-03T11:29:49.602Z,33.10
2018-07-03T11:32:17.742Z,32.60
2018-07-03T11:34:45.954Z,31.90
2018-07-03T11:37:14.135Z,31.30
2018-07-03T11:39:42.285Z,32.80
2018-07-03T11:42:10.458Z,33.20
2018-07-03T11:44:38.719Z,33.50
2018-07-03T11:47:06.901Z,33.40
2018-07-03T11:49:35.055Z,33.50
2018-07-03T11:52:03.239Z,33.30
2018-07-03T11:54:31.394Z,33.60
2018-07-03T11:56:59.566Z,33.30
2018-07-03T11:59:27.709Z,33.30
2018-07-03T12:01:55.861Z,33.60
2018-07-03T12:04:24.078Z,31.90
2018-07-03T12:06:52.314Z,32.30
2018-07-03T12:09:28.978Z,31.60
2018-07-03T12:11:57.207Z,31.90
2018-07-03T12:14:25.356Z,32.00
2018-07-03T12:17:12.431Z,32.80
2018-07-03T12:19:40.630Z,32.30
2018-07-03T12:22:08.727Z,32.40
2018-07-03T12:24:36.875Z,33.80
2018-07-03T12:27:05.268Z,34.10
2018-07-03T12:29:33.479Z,35.10
2018-07-03T12:32:01.863Z,34.40
2018-07-03T12:34:30.658Z,33.80
2018-07-03T12:37:02.528Z,32.80
2018-07-03T12:39:30.788Z,32.70
2018-07-03T12:41:59.170Z,33.60
2018-07-03T12:44:27.450Z,32.10
2018-07-03T12:46:56.192Z,31.50
2018-07-03T12:49:24.978Z,31.50
2018-07-03T12:51:53.625Z,31.70
2018-07-03T12:54:22.494Z,31.70
2018-07-03T12:56:51.034Z,31.60
2018-07-03T12:59:20.055Z,31.30
2018-07-03T13:01:48.214Z,31.50
2018-07-03T13:04:16.552Z,31.30
2018-07-03T13:06:44.810Z,31.80
2018-07-03T13:09:13.450Z,30.60
2018-07-03T13:11:42.046Z,30.70
2018-07-03T13:14:10.669Z,30.80
2018-07-03T13:16:39.388Z,30.50
2018-07-03T13:19:07.901Z,30.50
2018-07-03T13:21:36.333Z,30.10
2018-07-03T13:24:04.720Z,29.40
2018-07-03T13:26:36.853Z,29.70
2018-07-03T13:29:05.923Z,30.40
2018-07-03T13:31:34.545Z,30.00
2018-07-03T13:34:03.347Z,30.00
2018-07-03T13:36:31.961Z,29.70
2018-07-03T13:39:00.677Z,30.00
2018-07-03T13:41:28.905Z,30.00
2018-07-03T13:43:57.103Z,30.20
2018-07-03T13:46:26.499Z,30.80
2018-07-03T13:48:54.870Z,32.50
2018-07-03T13:51:23.290Z,32.50
2018-07-03T13:53:51.706Z,31.90
2018-07-03T13:56:19.972Z,31.10
2018-07-03T13:58:48.348Z,31.00
2018-07-03T14:01:16.634Z,30.50
2018-07-03T14:03:45.570Z,29.60
2018-07-03T14:06:14.711Z,29.70
2018-07-03T14:08:42.903Z,29.50
2018-07-03T14:11:12.415Z,29.00
2018-07-03T14:13:41.316Z,30.00
2018-07-03T14:16:09.807Z,29.80
2018-07-03T14:18:38.053Z,30.20
2018-07-03T14:21:06.242Z,30.10
2018-07-03T14:23:34.564Z,30.10
2018-07-03T14:28:31.406Z,29.20
2018-07-03T14:30:59.841Z,28.90
2018-07-03T14:33:28.345Z,28.40
2018-07-03T14:35:56.787Z,28.50
2018-07-03T14:38:25.474Z,28.50
2018-07-03T14:40:53.915Z,28.70
2018-07-03T14:43:22.372Z,28.60
2018-07-03T14:45:50.700Z,28.40
2018-07-03T14:48:18.873Z,27.90
2018-07-03T14:50:47.271Z,27.60
2018-07-03T14:53:15.414Z,28.20
2018-07-03T14:55:43.798Z,29.00
2018-07-03T14:58:15.741Z,30.00
2018-07-03T15:00:44.856Z,30.40
2018-07-03T15:03:13.047Z,29.70
2018-07-03T15:05:43.482Z,30.00
2018-07-03T15:08:12.997Z,30.00
2018-07-03T15:10:42.378Z,30.50
2018-07-03T15:13:10.697Z,30.60
2018-07-03T15:15:38.987Z,30.70
2018-07-03T15:18:08.511Z,30.90
2018-07-03T15:20:36.865Z,31.10
2018-07-03T15:23:05.313Z,31.50
2018-07-03T15:25:34.013Z,31.40
2018-07-03T15:31:12.024Z,30.80
2018-07-03T15:33:42.295Z,30.90
2018-07-03T15:39:03.833Z,30.70
2018-07-03T15:41:31.988Z,30.40
2018-07-03T15:44:11.637Z,30.60
2018-07-03T15:46:39.828Z,30.40
2018-07-03T15:49:08.004Z,31.00
2018-07-03T15:51:36.195Z,32.40
2018-07-03T15:54:04.436Z,33.10
2018-07-03T15:56:32.676Z,33.90
2018-07-03T15:59:00.892Z,35.00
2018-07-03T16:01:29.106Z,35.40
2018-07-03T16:04:09.168Z,35.50
2018-07-03T16:07:15.524Z,34.50
2018-07-03T16:09:43.712Z,33.10
2018-07-03T16:12:11.912Z,31.70
2018-07-03T16:14:40.049Z,31.90
2018-07-03T16:17:08.274Z,32.30
2018-07-03T16:19:41.928Z,32.30
2018-07-03T16:22:10.209Z,34.10
2018-07-03T16:24:38.393Z,35.20
2018-07-03T16:27:06.617Z,35.80
2018-07-03T16:29:34.790Z,36.70
2018-07-03T16:32:02.951Z,37.40
2018-07-03T16:34:31.177Z,37.90
2018-07-03T16:36:59.356Z,38.80
2018-07-03T16:39:27.631Z,39.20
2018-07-03T16:41:56.007Z,40.20
2018-07-03T16:44:24.189Z,40.50
2018-07-03T16:46:52.356Z,40.90
2018-07-03T16:49:20.552Z,40.70
2018-07-03T16:51:48.740Z,40.30
2018-07-03T16:54:17.106Z,40.20
2018-07-03T16:56:45.263Z,40.50
2018-07-03T16:59:13.451Z,40.70
2018-07-03T17:01:41.984Z,39.90
2018-07-03T17:04:10.243Z,39.20
2018-07-03T17:06:38.391Z,38.60
2018-07-03T17:09:09.338Z,38.30
2018-07-03T17:11:37.763Z,37.60
2018-07-03T17:14:07.417Z,37.70
2018-07-03T17:16:35.633Z,38.20
2018-07-03T17:19:09.176Z,38.70
2018-07-03T17:21:37.386Z,39.00
2018-07-03T17:24:05.706Z,40.40
2018-07-03T17:26:33.916Z,40.40
2018-07-03T17:29:02.140Z,41.50
2018-07-03T17:31:30.431Z,42.00
2018-07-03T17:33:58.654Z,42.60
2018-07-03T17:36:26.760Z,43.40
2018-07-03T17:38:54.949Z,44.30
2018-07-03T17:41:34.576Z,43.90
2018-07-03T17:44:18.944Z,44.20
2018-07-03T17:46:47.151Z,45.10
2018-07-03T17:49:15.286Z,45.30
2018-07-03T17:51:43.456Z,46.00
2018-07-03T17:54:11.687Z,44.90
2018-07-03T17:56:39.951Z,45.30
2018-07-03T17:59:08.256Z,45.90
2018-07-03T18:01:36.544Z,45.70
2018-07-03T18:04:04.715Z,46.40
2018-07-03T18:06:32.910Z,46.80
2018-07-03T18:09:01.107Z,46.50
2018-07-03T18:11:29.295Z,46.90
2018-07-03T18:13:57.485Z,46.80
2018-07-03T18:16:25.635Z,47.50
2018-07-03T18:18:58.997Z,47.80
2018-07-03T18:21:27.153Z,48.20
2018-07-03T18:23:55.379Z,48.90
2018-07-03T18:26:23.592Z,48.80
2018-07-03T18:28:51.755Z,49.00
2018-07-03T18:31:19.983Z,49.40
2018-07-03T18:33:48.144Z,50.10
2018-07-03T18:38:44.240Z,50.10
2018-07-03T18:41:12.471Z,50.20
2018-07-03T18:43:40.619Z,50.10
2018-07-03T18:46:08.792Z,50.30
2018-07-03T18:48:37.067Z,50.60
2018-07-03T18:51:05.319Z,51.40
2018-07-03T18:53:33.634Z,51.50
2018-07-03T18:56:01.790Z,52.00
2018-07-03T18:58:30.014Z,51.50
2018-07-03T19:00:58.262Z,51.90
2018-07-03T19:03:26.516Z,52.10
2018-07-03T19:05:54.590Z,53.30
2018-07-03T19:08:22.884Z,53.60
2018-07-03T19:10:51.080Z,53.70
2018-07-03T19:13:19.432Z,54.40
2018-07-03T19:15:47.621Z,54.60
2018-07-03T19:18:15.775Z,54.90
2018-07-03T19:20:44.045Z,55.10
2018-07-03T19:23:12.216Z,55.50
2018-07-03T19:25:40.562Z,56.00
2018-07-03T19:28:08.714Z,56.40
2018-07-03T19:30:36.939Z,56.50
2018-07-03T19:33:05.144Z,57.10
2018-07-03T19:35:33.334Z,57.70
2018-07-03T19:38:01.593Z,57.80
2018-07-03T19:40:29.702Z,58.20
2018-07-03T19:43:32.067Z,58.70
2018-07-03T19:46:01.384Z,59.10
2018-07-03T19:48:29.546Z,59.90
2018-07-03T19:50:58.152Z,60.30
2018-07-03T19:53:26.268Z,61.40
2018-07-03T19:55:55.614Z,60.70
2018-07-03T19:58:23.915Z,61.10
2018-07-03T20:00:53.142Z,61.50
2018-07-03T20:03:21.373Z,62.20
2018-07-03T20:05:49.539Z,64.90
2018-07-03T20:08:17.804Z,64.30
2018-07-03T20:10:45.974Z,65.00
2018-07-03T20:13:15.793Z,66.30
2018-07-03T20:15:43.956Z,67.80
2018-07-03T20:18:12.864Z,68.60
2018-07-03T20:20:41.032Z,69.00
2018-07-03T20:23:09.187Z,69.60
2018-07-03T20:25:38.167Z,70.40
2018-07-03T20:28:06.393Z,70.80
2018-07-03T20:30:34.572Z,72.10
2018-07-03T20:33:02.723Z,72.60
2018-07-03T20:35:31.078Z,73.10
2018-07-03T20:38:04.431Z,73.70
2018-07-03T20:40:48.357Z,74.30
2018-07-03T20:43:16.542Z,74.10
2018-07-03T20:45:44.704Z,74.80
2018-07-03T20:48:12.895Z,74.80
2018-07-03T20:50:41.098Z,75.10
2018-07-03T20:53:09.252Z,75.40
2018-07-03T20:55:37.429Z,75.60
2018-07-03T20:58:05.598Z,76.00
2018-07-03T21:00:33.792Z,76.30
2018-07-03T21:03:02.050Z,77.10
2018-07-03T21:05:30.225Z,77.60
2018-07-03T21:07:58.412Z,78.50
2018-07-03T21:10:26.641Z,79.20
2018-07-03T21:12:54.764Z,80.10
2018-07-03T21:15:22.957Z,82.00
2018-07-03T21:17:51.113Z,83.60
2018-07-03T21:20:19.450Z,84.30
2018-07-03T21:22:47.618Z,85.20
2018-07-03T21:25:15.816Z,85.60
2018-07-03T21:27:44.336Z,85.90
2018-07-03T21:30:12.920Z,86.10
2018-07-03T21:32:41.201Z,86.40
2018-07-03T21:35:09.366Z,87.00
2018-07-03T21:37:37.630Z,87.70
2018-07-03T21:40:05.794Z,88.00
2018-07-03T21:42:34.051Z,87.90
2018-07-03T21:45:02.248Z,88.40
2018-07-03T21:47:30.452Z,88.70
2018-07-03T21:49:58.651Z,89.40
2018-07-03T21:52:26.821Z,89.60
2018-07-03T21:54:55.212Z,89.80
2018-07-03T21:57:23.388Z,89.90
2018-07-03T21:59:51.585Z,90.10
2018-07-03T22:02:19.755Z,90.30
2018-07-03T22:04:47.937Z,90.70
2018-07-03T22:07:16.142Z,90.60
2018-07-03T22:09:44.305Z,90.70
2018-07-03T22:12:12.495Z,90.90
2018-07-03T22:14:41.849Z,90.90
2018-07-03T22:17:11.064Z,90.90
2018-07-03T22:19:39.418Z,90.80
2018-07-03T22:22:07.736Z,90.60
2018-07-03T22:24:35.869Z,90.60
2018-07-03T22:27:04.550Z,90.70
2018-07-03T22:29:32.752Z,90.80
2018-07-03T22:32:01.106Z,91.10
2018-07-03T22:34:29.318Z,91.50
2018-07-03T22:36:57.471Z,91.50
2018-07-03T22:39:25.721Z,91.80
2018-07-03T22:41:53.978Z,91.80
2018-07-03T22:44:22.165Z,91.80
2018-07-03T22:46:50.363Z,91.70
2018-07-03T22:51:46.520Z,91.70
2018-07-03T22:54:14.676Z,91.70
2018-07-03T22:56:42.856Z,91.70
2018-07-03T22:59:11.025Z,91.90
2018-07-03T23:01:39.194Z,92.00
2018-07-03T23:04:07.471Z,92.10
2018-07-03T23:06:35.667Z,92.30
2018-07-03T23:09:05.636Z,92.10
2018-07-03T23:11:33.796Z,91.80
2018-07-03T23:14:02.283Z,91.80
2018-07-03T23:16:34.620Z,91.70
2018-07-03T23:19:07.419Z,91.50
2018-07-03T23:21:36.153Z,91.40
2018-07-03T23:24:04.326Z,91.30
2018-07-03T23:26:32.667Z,91.10
2018-07-03T23:29:00.839Z,91.10
2018-07-03T23:31:28.985Z,91.10
2018-07-03T23:33:57.158Z,91.30
2018-07-03T23:36:25.318Z,91.40
2018-07-03T23:38:53.456Z,91.70
2018-07-03T23:41:21.922Z,91.70
2018-07-03T23:43:50.089Z,91.30
2018-07-03T23:46:29.699Z,91.10
2018-07-03T23:49:09.407Z,90.90
2018-07-03T23:51:49.135Z,91.40
2018-07-03T23:54:28.773Z,91.70
2018-07-03T23:57:08.476Z,91.50
2018-07-03T23:59:48.184Z,91.60
